Time;durP1;ratioP1;P1;durP2;ratioP2;P2;SDS_P1;SDS_P2;PMS_P1;PMS_P2;Temp;Humidity;BMP_temperature;BMP_pressure;BME280_temperature;BME280_humidity;BME280_pressure;Samples;Min_cycle;Max_cycle;Signal;HPM_P1;HPM_P2
2021/12/03 00:00:08;;;;;;;;;16.50;14.25;;;;;;;;5051753;28;45589;-87
2021/12/03 00:02:33;;;;;;;;;13.50;12.25;;;;;;;;5032119;28;48112;-87
2021/12/03 00:04:58;;;;;;;;;15.50;14.25;;;;;;;;5033522;28;45646;-88
2021/12/03 00:07:24;;;;;;;;;15.00;14.00;;;;;;;;5034814;28;45845;-87
2021/12/03 00:09:49;;;;;;;;;15.75;15.00;;;;;;;;5015894;28;45412;-87
2021/12/03 00:12:14;;;;;;;;;19.00;18.00;;;;;;;;5032726;28;48171;-87
2021/12/03 00:14:40;;;;;;;;;2.00;1.67;;;;;;;;5032324;28;45431;-87
2021/12/03 00:19:58;;;;;;;;;23.00;18.75;;;;;;;;5059148;22;45561;-87
2021/12/03 00:22:23;;;;;;;;;19.00;17.00;;;;;;;;5031794;28;47267;-87
2021/12/03 00:24:49;;;;;;;;;20.00;18.67;;;;;;;;5032616;28;45447;-87
2021/12/03 00:27:14;;;;;;;;;17.67;17.00;;;;;;;;5032756;28;45641;-86
2021/12/03 00:29:39;;;;;;;;;18.50;18.25;;;;;;;;5031885;28;45702;-87
2021/12/03 00:32:05;;;;;;;;;12.50;10.25;;;;;;;;5050153;28;46694;-87
2021/12/03 00:34:30;;;;;;;;;18.00;18.00;;;;;;;;5027759;28;46880;-87
2021/12/03 00:36:55;;;;;;;;;17.00;17.00;;;;;;;;5033230;28;45498;-87
2021/12/03 00:39:21;;;;;;;;;18.00;15.67;;;;;;;;5031552;28;45680;-87
2021/12/03 00:41:49;;;;;;;;;21.00;17.00;;;;;;;;5030938;28;48584;-87
2021/12/03 00:44:14;;;;;;;;;18.75;16.50;;;;;;;;5031490;28;45873;-86
2021/12/03 00:46:39;;;;;;;;;18.75;17.75;;;;;;;;5031875;28;45485;-87
2021/12/03 00:49:04;;;;;;;;;20.00;18.00;;;;;;;;5032090;28;45854;-87
2021/12/03 00:51:30;;;;;;;;;15.00;14.33;;;;;;;;5030432;28;46975;-87
2021/12/03 00:53:55;;;;;;;;;15.00;14.00;;;;;;;;5031759;28;45752;-86
2021/12/03 00:56:21;;;;;;;;;15.25;15.00;;;;;;;;5049823;28;45547;-87
2021/12/03 00:58:46;;;;;;;;;13.25;12.50;;;;;;;;5031713;28;45420;-87
2021/12/03 01:01:12;;;;;;;;;17.50;15.75;;;;;;;;5031853;28;46693;-87
2021/12/03 01:03:37;;;;;;;;;14.00;13.75;;;;;;;;5049330;28;45900;-88
2021/12/03 01:06:03;;;;;;;;;15.00;14.75;;;;;;;;5031482;28;45368;-87
2021/12/03 01:08:31;;;;;;;;;14.25;14.25;;;;;;;;5033047;28;45544;-87
2021/12/03 01:10:56;;;;;;;;;15.75;14.00;;;;;;;;5036149;28;48296;-87
2021/12/03 01:13:21;;;;;;;;;16.33;15.00;;;;;;;;5034657;28;45521;-86
2021/12/03 01:15:46;;;;;;;;;13.33;13.00;;;;;;;;5038678;28;45353;-87
2021/12/03 01:18:12;;;;;;;;;14.75;14.00;;;;;;;;5035045;28;45321;-85
2021/12/03 01:20:38;;;;;;;;;15.75;14.75;;;;;;;;5033712;28;47213;-85
2021/12/03 01:23:05;;;;;;;;;13.50;13.50;;;;;;;;5036143;28;45834;-87
2021/12/03 01:25:31;;;;;;;;;15.50;13.25;;;;;;;;5035019;28;45511;-86
2021/12/03 01:27:58;;;;;;;;;14.25;12.00;;;;;;;;5054136;28;45481;-87
2021/12/03 01:30:24;;;;;;;;;17.25;15.00;;;;;;;;5039118;28;47038;-87
2021/12/03 01:32:50;;;;;;;;;15.00;14.33;;;;;;;;5035275;28;45468;-86
2021/12/03 01:35:15;;;;;;;;;13.75;13.75;;;;;;;;5053052;28;45460;-87
2021/12/03 01:37:41;;;;;;;;;17.67;15.67;;;;;;;;5054094;28;45373;-87
2021/12/03 01:40:07;;;;;;;;;22.50;18.75;;;;;;;;5034707;28;47012;-87
2021/12/03 01:42:33;;;;;;;;;16.75;15.00;;;;;;;;5033628;28;45769;-87
2021/12/03 01:44:58;;;;;;;;;13.00;11.67;;;;;;;;5036484;28;45369;-87
2021/12/03 01:47:23;;;;;;;;;18.00;16.00;;;;;;;;5052867;28;45573;-87
2021/12/03 01:49:49;;;;;;;;;18.25;14.75;;;;;;;;5035377;28;48072;-87
2021/12/03 01:52:14;;;;;;;;;16.33;15.00;;;;;;;;5034088;28;45445;-87
2021/12/03 01:54:39;;;;;;;;;19.00;15.00;;;;;;;;5036363;28;45523;-87
2021/12/03 01:57:04;;;;;;;;;19.67;18.00;;;;;;;;5038246;28;45599;-87
2021/12/03 01:59:29;;;;;;;;;16.33;15.00;;;;;;;;5038378;28;47235;-87
2021/12/03 02:01:55;;;;;;;;;17.00;14.33;;;;;;;;5043979;28;45685;-87
2021/12/03 02:04:20;;;;;;;;;13.67;13.33;;;;;;;;5039670;28;45525;-87
2021/12/03 02:06:45;;;;;;;;;19.00;18.33;;;;;;;;5041987;28;45333;-87
2021/12/03 02:09:10;;;;;;;;;13.00;13.00;;;;;;;;5041279;28;47325;-87
2021/12/03 02:11:36;;;;;;;;;18.00;16.33;;;;;;;;5043854;28;45713;-87
2021/12/03 02:14:02;;;;;;;;;14.75;13.00;;;;;;;;5048393;28;45441;-86
2021/12/03 02:16:27;;;;;;;;;15.00;14.00;;;;;;;;5038670;28;45347;-87
2021/12/03 02:18:53;;;;;;;;;18.75;15.50;;;;;;;;5043426;28;47350;-86
2021/12/03 02:21:18;;;;;;;;;14.50;14.25;;;;;;;;5035126;28;45475;-87
2021/12/03 02:23:44;;;;;;;;;14.50;12.25;;;;;;;;5039447;28;45389;-87
2021/12/03 02:26:10;;;;;;;;;15.00;14.00;;;;;;;;5037047;28;45340;-86
2021/12/03 02:28:38;;;;;;;;;14.25;11.50;;;;;;;;5034505;28;46999;-88
2021/12/03 02:31:04;;;;;;;;;13.50;12.25;;;;;;;;5037409;28;45884;-88
2021/12/03 02:33:30;;;;;;;;;14.50;14.25;;;;;;;;5037975;28;45630;-88
2021/12/03 02:35:55;;;;;;;;;15.00;12.50;;;;;;;;5034277;28;45463;-88
2021/12/03 02:38:22;;;;;;;;;15.67;15.00;;;;;;;;5035383;28;46970;-87
2021/12/03 02:40:47;;;;;;;;;13.75;12.25;;;;;;;;5033980;28;45444;-87
2021/12/03 02:43:14;;;;;;;;;13.00;11.50;;;;;;;;5034906;28;45510;-87
2021/12/03 02:45:39;;;;;;;;;10.50;10.00;;;;;;;;5035256;28;45468;-87
2021/12/03 02:48:04;;;;;;;;;12.33;12.33;;;;;;;;5036883;28;47050;-87
2021/12/03 02:50:30;;;;;;;;;11.00;10.50;;;;;;;;5033857;28;45517;-87
2021/12/03 02:52:56;;;;;;;;;14.00;11.75;;;;;;;;5034261;28;45444;-88
2021/12/03 02:55:22;;;;;;;;;14.75;13.75;;;;;;;;5033804;28;45575;-88
2021/12/03 02:57:47;;;;;;;;;12.25;11.25;;;;;;;;5033567;28;48620;-88
2021/12/03 03:00:14;;;;;;;;;11.50;11.50;;;;;;;;5033359;28;45758;-87
2021/12/03 03:02:40;;;;;;;;;12.00;11.00;;;;;;;;5033566;28;45567;-88
2021/12/03 03:05:06;;;;;;;;;14.00;12.00;;;;;;;;5037273;28;45390;-88
2021/12/03 03:07:31;;;;;;;;;14.00;11.00;;;;;;;;5034968;28;48573;-87
2021/12/03 03:09:56;;;;;;;;;10.75;10.00;;;;;;;;5034565;28;45417;-88
2021/12/03 03:12:22;;;;;;;;;14.00;12.00;;;;;;;;5033083;28;45640;-86
2021/12/03 03:14:51;;;;;;;;;14.25;11.75;;;;;;;;5035479;28;45495;-87
2021/12/03 03:17:16;;;;;;;;;11.50;10.50;;;;;;;;5034044;28;46987;-87
2021/12/03 03:19:42;;;;;;;;;14.00;13.25;;;;;;;;5035571;28;45505;-87
2021/12/03 03:22:07;;;;;;;;;13.00;12.00;;;;;;;;5033651;28;45425;-88
2021/12/03 03:24:32;;;;;;;;;14.00;14.00;;;;;;;;5033909;28;45481;-87
2021/12/03 03:26:57;;;;;;;;;15.75;15.75;;;;;;;;5035741;28;47945;-87
2021/12/03 03:29:23;;;;;;;;;13.50;13.50;;;;;;;;5033269;28;45665;-87
2021/12/03 03:31:48;;;;;;;;;14.50;13.75;;;;;;;;5034233;28;45407;-87
2021/12/03 03:34:13;;;;;;;;;16.25;14.50;;;;;;;;5033537;28;45754;-88
2021/12/03 03:36:42;;;;;;;;;15.33;14.33;;;;;;;;5033036;28;47282;-87
2021/12/03 03:39:08;;;;;;;;;15.00;13.00;;;;;;;;5033077;28;46543;-88
2021/12/03 03:41:33;;;;;;;;;15.50;14.50;;;;;;;;5035968;28;45406;-87
2021/12/03 03:43:59;;;;;;;;;12.50;10.75;;;;;;;;5033671;28;45670;-87
2021/12/03 03:46:25;;;;;;;;;14.50;13.00;;;;;;;;5033751;28;48290;-88
2021/12/03 03:48:50;;;;;;;;;12.67;12.67;;;;;;;;5032430;28;45434;-88
2021/12/03 03:51:16;;;;;;;;;14.00;14.00;;;;;;;;5035549;28;45388;-87
2021/12/03 03:53:41;;;;;;;;;16.50;14.00;;;;;;;;5032897;28;45639;-88
2021/12/03 03:56:07;;;;;;;;;14.50;12.50;;;;;;;;5033754;28;48481;-87
2021/12/03 03:58:33;;;;;;;;;16.50;11.75;;;;;;;;5032459;28;45692;-88
2021/12/03 04:00:58;;;;;;;;;14.00;13.33;;;;;;;;5032796;28;45405;-87
2021/12/03 04:03:23;;;;;;;;;15.00;13.00;;;;;;;;5033920;28;45423;-87
2021/12/03 04:05:49;;;;;;;;;14.50;14.50;;;;;;;;5032119;28;48055;-88
2021/12/03 04:08:14;;;;;;;;;14.00;10.67;;;;;;;;5034010;28;45539;-87
2021/12/03 04:10:39;;;;;;;;;12.33;11.00;;;;;;;;5034174;28;45387;-87
2021/12/03 04:13:04;;;;;;;;;12.33;11.00;;;;;;;;5053586;28;46162;-87
2021/12/03 04:15:30;;;;;;;;;12.00;12.00;;;;;;;;5031518;28;48361;-87
2021/12/03 04:17:55;;;;;;;;;10.00;10.00;;;;;;;;5035790;28;45353;-88
2021/12/03 04:20:21;;;;;;;;;11.67;11.00;;;;;;;;5031911;28;45598;-87
2021/12/03 04:22:46;;;;;;;;;10.00;9.50;;;;;;;;5052910;28;45530;-87
2021/12/03 04:25:14;;;;;;;;;10.00;10.00;;;;;;;;5033925;28;47106;-88
2021/12/03 04:27:40;;;;;;;;;10.50;10.50;;;;;;;;5032039;28;45849;-87
2021/12/03 04:30:07;;;;;;;;;11.50;10.25;;;;;;;;5032694;28;45664;-88
2021/12/03 04:32:33;;;;;;;;;13.50;10.25;;;;;;;;5033632;28;45494;-87
2021/12/03 04:34:58;;;;;;;;;10.00;8.75;;;;;;;;5037947;28;47373;-86
2021/12/03 04:37:24;;;;;;;;;10.25;8.75;;;;;;;;5040519;22;45872;-87
2021/12/03 04:39:51;;;;;;;;;9.25;9.25;;;;;;;;5065924;22;45469;-88
2021/12/03 04:42:16;;;;;;;;;11.25;10.00;;;;;;;;5031548;28;45634;-87
2021/12/03 04:44:42;;;;;;;;;6.75;6.50;;;;;;;;5031492;28;47058;-87
2021/12/03 04:47:07;;;;;;;;;6.67;6.33;;;;;;;;5031862;28;45885;-87
2021/12/03 04:49:32;;;;;;;;;9.33;8.33;;;;;;;;5051245;28;45252;-86
2021/12/03 04:51:58;;;;;;;;;10.67;10.00;;;;;;;;5033321;28;45436;-87
2021/12/03 04:54:23;;;;;;;;;10.00;10.00;;;;;;;;5050748;28;46422;-87
2021/12/03 04:56:48;;;;;;;;;8.25;8.25;;;;;;;;5032600;28;45451;-87
2021/12/03 04:59:14;;;;;;;;;9.67;9.67;;;;;;;;5034042;28;45489;-87
2021/12/03 05:01:40;;;;;;;;;10.00;7.67;;;;;;;;5031856;28;45584;-87
2021/12/03 05:04:05;;;;;;;;;11.00;10.75;;;;;;;;5041323;28;47646;-87
2021/12/03 05:06:51;;;;;;;;;11.75;11.50;;;;;;;;5046072;28;45382;-87
2021/12/03 05:09:16;;;;;;;;;11.25;10.75;;;;;;;;5063779;28;45222;-87
2021/12/03 05:11:41;;;;;;;;;8.33;8.33;;;;;;;;5049685;28;45199;-87
2021/12/03 05:14:06;;;;;;;;;12.33;11.33;;;;;;;;5048420;28;47512;-88
2021/12/03 05:16:31;;;;;;;;;10.00;9.00;;;;;;;;5049319;28;45207;-88
2021/12/03 05:18:56;;;;;;;;;11.67;10.67;;;;;;;;5048579;28;45239;-88
2021/12/03 05:21:22;;;;;;;;;11.00;9.00;;;;;;;;5040960;28;45518;-88
2021/12/03 05:23:47;;;;;;;;;14.33;11.67;;;;;;;;5031039;28;48276;-87
2021/12/03 05:26:12;;;;;;;;;10.00;10.00;;;;;;;;5032073;28;45417;-87
2021/12/03 05:28:37;;;;;;;;;17.33;11.33;;;;;;;;5034081;28;45564;-88
2021/12/03 05:31:03;;;;;;;;;18.00;15.00;;;;;;;;5029655;28;45278;-88
2021/12/03 05:33:28;;;;;;;;;14.00;12.33;;;;;;;;5012371;28;48422;-88
2021/12/03 05:35:53;;;;;;;;;15.00;14.00;;;;;;;;5018435;28;46019;-88
2021/12/03 05:38:18;;;;;;;;;13.00;13.00;;;;;;;;5037307;28;45802;-88
2021/12/03 05:40:44;;;;;;;;;13.00;11.00;;;;;;;;5039629;28;45603;-87
2021/12/03 05:43:09;;;;;;;;;11.33;11.33;;;;;;;;5046789;28;47285;-87
2021/12/03 05:45:35;;;;;;;;;10.00;10.00;;;;;;;;5047998;28;45190;-87
2021/12/03 05:48:01;;;;;;;;;14.75;12.50;;;;;;;;5038352;28;45863;-88
2021/12/03 05:50:26;;;;;;;;;15.25;13.75;;;;;;;;5046481;28;45275;-88
2021/12/03 05:52:52;;;;;;;;;10.75;10.75;;;;;;;;5044496;28;47354;-88
2021/12/03 05:55:18;;;;;;;;;11.75;10.75;;;;;;;;5049156;28;45128;-88
2021/12/03 05:57:45;;;;;;;;;14.75;14.00;;;;;;;;5049749;28;45112;-88
2021/12/03 06:00:13;;;;;;;;;11.50;11.00;;;;;;;;5052094;28;45164;-88
2021/12/03 06:02:38;;;;;;;;;13.75;12.25;;;;;;;;5049238;28;47128;-87
2021/12/03 06:05:03;;;;;;;;;14.00;12.33;;;;;;;;5049528;28;45396;-87
2021/12/03 06:07:29;;;;;;;;;9.25;9.00;;;;;;;;5052203;28;45109;-88
2021/12/03 06:09:54;;;;;;;;;10.67;9.00;;;;;;;;5050224;28;45387;-88
2021/12/03 06:12:19;;;;;;;;;9.00;9.00;;;;;;;;5053385;28;45901;-88
2021/12/03 06:14:44;;;;;;;;;9.67;9.00;;;;;;;;5035338;28;45683;-88
2021/12/03 06:17:12;;;;;;;;;10.00;8.33;;;;;;;;5035449;28;45451;-88
2021/12/03 06:19:39;;;;;;;;;7.75;6.50;;;;;;;;5037699;28;45534;-86
2021/12/03 06:22:04;;;;;;;;;10.75;10.50;;;;;;;;5047615;28;47309;-86
2021/12/03 06:24:29;;;;;;;;;6.67;6.00;;;;;;;;5052451;28;45240;-88
2021/12/03 06:26:54;;;;;;;;;10.00;8.33;;;;;;;;5053047;28;45115;-88
2021/12/03 06:29:19;;;;;;;;;8.00;7.00;;;;;;;;5052974;28;45176;-87
2021/12/03 06:31:45;;;;;;;;;11.33;9.67;;;;;;;;5037817;28;47265;-87
2021/12/03 06:34:10;;;;;;;;;10.00;10.00;;;;;;;;5035230;28;45636;-88
2021/12/03 06:36:35;;;;;;;;;11.67;10.33;;;;;;;;5034686;28;45442;-88
2021/12/03 06:39:00;;;;;;;;;12.67;11.67;;;;;;;;5033861;28;45480;-88
2021/12/03 06:41:26;;;;;;;;;9.50;9.50;;;;;;;;5041949;28;47636;-88
2021/12/03 06:43:51;;;;;;;;;11.00;9.33;;;;;;;;5045638;28;45256;-87
2021/12/03 06:46:17;;;;;;;;;7.25;7.25;;;;;;;;5046500;28;45573;-87
2021/12/03 06:49:19;;;;;;;;;8.75;7.75;;;;;;;;5042029;28;45462;-88
2021/12/03 06:51:45;;;;;;;;;11.50;10.25;;;;;;;;5034009;28;48409;-88
2021/12/03 06:54:11;;;;;;;;;9.75;9.50;;;;;;;;5033877;28;45670;-88
2021/12/03 06:56:51;;;;;;;;;7.00;7.00;;;;;;;;5033210;28;45575;-88
2021/12/03 06:59:17;;;;;;;;;10.00;9.00;;;;;;;;5033805;28;45372;-86
2021/12/03 07:01:43;;;;;;;;;10.50;9.50;;;;;;;;5051180;28;45482;-87
2021/12/03 07:04:08;;;;;;;;;8.25;8.25;;;;;;;;5035088;28;46237;-87
2021/12/03 07:06:33;;;;;;;;;6.00;5.75;;;;;;;;5032120;28;45427;-87
2021/12/03 07:08:59;;;;;;;;;9.67;8.33;;;;;;;;5035054;28;45421;-87
2021/12/03 07:11:24;;;;;;;;;9.67;9.67;;;;;;;;5032750;28;48016;-87
2021/12/03 07:13:49;;;;;;;;;10.00;7.00;;;;;;;;5033438;28;45581;-87
2021/12/03 07:16:15;;;;;;;;;14.25;11.50;;;;;;;;5033636;28;45427;-87
2021/12/03 07:18:40;;;;;;;;;10.00;10.00;;;;;;;;5034281;28;45509;-87
2021/12/03 07:21:05;;;;;;;;;6.67;6.67;;;;;;;;5031775;28;46985;-87
2021/12/03 07:23:31;;;;;;;;;9.00;8.75;;;;;;;;5050001;28;45023;-87
2021/12/03 07:25:59;;;;;;;;;6.50;5.00;;;;;;;;5051642;28;45244;-87
2021/12/03 07:28:24;;;;;;;;;7.00;7.00;;;;;;;;5047346;28;45518;-87
2021/12/03 07:30:49;;;;;;;;;6.75;5.50;;;;;;;;5041461;28;47142;-87
2021/12/03 07:33:17;;;;;;;;;9.00;7.00;;;;;;;;5045752;28;45288;-87
2021/12/03 07:35:45;;;;;;;;;5.00;5.00;;;;;;;;5045628;28;45372;-87
2021/12/03 07:38:11;;;;;;;;;5.00;3.00;;;;;;;;5049878;28;45203;-86
2021/12/03 07:40:36;;;;;;;;;6.00;4.50;;;;;;;;5040506;28;47558;-87
2021/12/03 07:43:01;;;;;;;;;6.00;6.00;;;;;;;;5025334;28;45319;-87
2021/12/03 07:45:26;;;;;;;;;7.00;7.00;;;;;;;;5035418;28;45262;-87
2021/12/03 07:47:52;;;;;;;;;7.00;7.00;;;;;;;;5040527;28;45537;-87
2021/12/03 07:50:17;;;;;;;;;5.00;5.00;;;;;;;;5032532;28;48252;-87
2021/12/03 07:52:42;;;;;;;;;5.25;5.25;;;;;;;;5050469;28;45284;-87
2021/12/03 07:55:09;;;;;;;;;6.33;6.33;;;;;;;;5048639;28;45066;-85
2021/12/03 07:57:34;;;;;;;;;5.75;5.00;;;;;;;;5035931;28;45550;-86
2021/12/03 07:59:59;;;;;;;;;5.75;5.50;;;;;;;;5035558;28;47835;-86
2021/12/03 08:02:26;;;;;;;;;7.67;6.33;;;;;;;;5039442;28;45384;-87
2021/12/03 08:04:51;;;;;;;;;6.50;6.50;;;;;;;;5036777;28;45486;-87
2021/12/03 08:07:17;;;;;;;;;5.00;5.00;;;;;;;;5032864;28;45406;-87
2021/12/03 08:09:42;;;;;;;;;5.00;5.00;;;;;;;;5033174;28;48264;-87
2021/12/03 08:12:07;;;;;;;;;4.33;3.00;;;;;;;;5033047;28;45388;-87
2021/12/03 08:14:33;;;;;;;;;3.00;2.75;;;;;;;;5035275;28;45672;-86
2021/12/03 08:16:58;;;;;;;;;7.00;5.00;;;;;;;;5033958;28;45515;-86
2021/12/03 08:19:23;;;;;;;;;3.00;3.00;;;;;;;;5035262;28;46995;-87
2021/12/03 08:21:48;;;;;;;;;5.00;4.33;;;;;;;;5036556;28;45570;-86
2021/12/03 08:24:17;;;;;;;;;5.00;5.00;;;;;;;;5043850;28;45389;-86
2021/12/03 08:26:42;;;;;;;;;6.75;5.75;;;;;;;;5043505;28;45289;-87
2021/12/03 08:29:07;;;;;;;;;8.00;6.00;;;;;;;;5034101;28;47445;-86
2021/12/03 08:31:33;;;;;;;;;5.67;5.00;;;;;;;;5032368;28;45622;-88
2021/12/03 08:33:58;;;;;;;;;6.00;5.25;;;;;;;;5041362;28;45528;-87
2021/12/03 08:36:23;;;;;;;;;5.33;5.33;;;;;;;;5053165;28;45385;-87
2021/12/03 08:38:48;;;;;;;;;6.00;5.67;;;;;;;;5034952;28;47449;-87
2021/12/03 08:41:18;;;;;;;;;3.00;2.33;;;;;;;;5053647;28;45385;-87
2021/12/03 08:43:44;;;;;;;;;6.50;6.50;;;;;;;;5038777;28;45452;-87
2021/12/03 08:46:14;;;;;;;;;2.00;2.00;;;;;;;;5044060;28;45219;-87
2021/12/03 08:48:44;;;;;;;;;6.50;6.00;;;;;;;;5040978;28;47635;-87
2021/12/03 08:56:37;;;;;;;;;4.00;4.00;;;;;;;;5040508;28;45406;-83
2021/12/03 08:59:04;;;;;;;;;3.67;3.67;;;;;;;;5053781;28;45774;-85
2021/12/03 09:01:29;;;;;;;;;5.00;4.50;;;;;;;;5042123;28;45423;-85
2021/12/03 09:03:54;;;;;;;;;5.33;5.00;;;;;;;;5040538;28;45617;-85
2021/12/03 09:06:19;;;;;;;;;5.00;5.00;;;;;;;;5056082;28;45411;-84
2021/12/03 09:08:45;;;;;;;;;2.33;2.33;;;;;;;;5041030;28;47286;-85
2021/12/03 09:11:10;;;;;;;;;5.50;4.00;;;;;;;;5035994;28;45468;-85
2021/12/03 09:13:36;;;;;;;;;5.67;5.67;;;;;;;;5049619;28;45131;-85
2021/12/03 09:16:06;;;;;;;;;5.00;5.00;;;;;;;;5047295;28;45356;-85
2021/12/03 09:18:37;;;;;;;;;5.00;4.50;;;;;;;;5036662;28;46983;-85
2021/12/03 09:23:35;;;;;;;;;5.75;5.50;;;;;;;;5058647;28;45132;-88
2021/12/03 09:26:06;;;;;;;;;5.00;5.00;;;;;;;;5049985;28;45298;-86
2021/12/03 09:28:32;;;;;;;;;6.00;6.00;;;;;;;;5048990;28;47411;-85
2021/12/03 09:30:57;;;;;;;;;5.00;5.00;;;;;;;;5061166;28;45629;-86
2021/12/03 09:33:26;;;;;;;;;5.00;3.67;;;;;;;;5034079;28;45526;-82
2021/12/03 09:35:55;;;;;;;;;3.50;2.75;;;;;;;;5052135;28;45510;-83
2021/12/03 09:38:21;;;;;;;;;6.00;6.00;;;;;;;;5052381;28;45740;-85
2021/12/03 09:40:46;;;;;;;;;5.00;5.00;;;;;;;;5044650;28;45424;-85
2021/12/03 09:43:12;;;;;;;;;5.00;2.75;;;;;;;;5019245;28;45159;-89
2021/12/03 09:45:40;;;;;;;;;5.00;5.00;;;;;;;;5046555;28;45472;-85
2021/12/03 09:48:16;;;;;;;;;3.00;3.00;;;;;;;;5034192;28;47048;-89
2021/12/03 09:50:42;;;;;;;;;4.00;4.00;;;;;;;;5059633;28;45881;-90
2021/12/03 09:53:35;;;;;;;;;5.00;5.00;;;;;;;;5045383;28;45207;-84
2021/12/03 09:56:01;;;;;;;;;3.75;3.75;;;;;;;;5064786;28;45532;-84
2021/12/03 09:58:47;;;;;;;;;6.00;5.50;;;;;;;;5053204;28;45654;-86
2021/12/03 10:01:19;;;;;;;;;6.00;5.25;;;;;;;;5039509;28;45782;-87
2021/12/03 10:04:06;;;;;;;;;5.50;5.50;;;;;;;;5040341;28;45233;-86
2021/12/03 10:13:04;;;;;;;;;5.00;5.00;;;;;;;;5064146;28;45569;-87
2021/12/03 10:15:36;;;;;;;;;6.00;5.25;;;;;;;;5064763;28;45174;-87
2021/12/03 10:18:18;;;;;;;;;6.75;6.00;;;;;;;;5031116;28;45233;-86
2021/12/03 10:20:56;;;;;;;;;9.00;7.50;;;;;;;;5032202;28;47181;-87
2021/12/03 10:41:59;;;;;;;;;6.00;6.00;;;;;;;;5065641;28;45541;-88
2021/12/03 10:47:11;;;;;;;;;7.00;6.25;;;;;;;;5068545;28;45113;-88
2021/12/03 11:06:46;;;;;;;;;5.75;5.00;;;;;;;;5035824;28;45773;-84
2021/12/03 11:36:14;;;;;;;;;7.25;6.50;;;;;;;;5069185;28;45135;-88
2021/12/03 13:26:35;;;;;;;;;5.75;5.00;;;;;;;;5035549;28;45398;-88
2021/12/03 13:40:47;;;;;;;;;6.25;5.75;;;;;;;;5036710;28;45384;-87
2021/12/03 13:57:06;;;;;;;;;8.00;7.50;;;;;;;;5056725;28;45843;-88
2021/12/03 14:19:15;;;;;;;;;5.00;5.00;;;;;;;;5008002;28;46276;-87
2021/12/03 14:34:27;;;;;;;;;1.75;1.25;;;;;;;;5053377;28;45984;-87
2021/12/03 14:56:05;;;;;;;;;3.00;3.00;;;;;;;;5063473;28;45189;-86
2021/12/03 15:01:02;;;;;;;;;6.00;5.67;;;;;;;;5046560;28;46045;-87
2021/12/03 15:08:28;;;;;;;;;4.50;1.75;;;;;;;;5068677;28;45313;-89
2021/12/03 15:13:31;;;;;;;;;6.33;6.00;;;;;;;;5057332;28;45445;-85
2021/12/03 15:19:01;;;;;;;;;4.50;4.50;;;;;;;;5057016;28;45458;-85
2021/12/03 15:32:20;;;;;;;;;7.00;7.00;;;;;;;;5068910;28;45709;-83
2021/12/03 15:35:12;;;;;;;;;2.50;2.25;;;;;;;;5050590;28;45544;-85
2021/12/03 16:04:46;;;;;;;;;2.00;2.00;;;;;;;;5068766;28;45072;-84
2021/12/03 16:18:01;;;;;;;;;6.00;6.00;;;;;;;;5068830;28;45735;-85
2021/12/03 16:23:16;;;;;;;;;7.50;7.00;;;;;;;;4967960;28;45283;-87
2021/12/03 16:50:59;;;;;;;;;5.25;5.25;;;;;;;;5049874;28;45581;-85
2021/12/03 16:53:29;;;;;;;;;7.75;6.50;;;;;;;;5050151;28;45472;-86
2021/12/03 16:56:08;;;;;;;;;11.00;8.00;;;;;;;;5032300;28;45384;-87
2021/12/03 16:58:35;;;;;;;;;7.00;6.00;;;;;;;;5031473;28;47334;-85
2021/12/03 17:48:54;;;;;;;;;7.00;6.75;;;;;;;;5049158;28;45519;-84
2021/12/03 17:56:27;;;;;;;;;7.50;7.25;;;;;;;;5052994;28;45442;-85
2021/12/03 17:59:04;;;;;;;;;12.50;10.25;;;;;;;;5034548;28;45578;-86
2021/12/03 18:01:35;;;;;;;;;10.25;8.25;;;;;;;;5034557;28;47138;-84
2021/12/03 18:04:08;;;;;;;;;10.25;7.50;;;;;;;;5052475;28;45731;-85
2021/12/03 18:49:54;;;;;;;;;14.50;14.50;;;;;;;;4998800;28;45612;-85
2021/12/03 18:52:44;;;;;;;;;19.50;19.25;;;;;;;;5032764;28;45560;-85
2021/12/03 18:55:13;;;;;;;;;17.75;17.50;;;;;;;;5033093;28;48196;-86
2021/12/03 18:57:45;;;;;;;;;27.00;25.25;;;;;;;;5032710;28;45740;-85
2021/12/03 19:00:13;;;;;;;;;25.50;21.00;;;;;;;;5033380;28;45815;-86
2021/12/03 19:02:42;;;;;;;;;33.25;31.75;;;;;;;;5031889;28;45428;-84
2021/12/03 19:05:34;;;;;;;;;20.75;20.25;;;;;;;;5050891;28;46337;-85
2021/12/03 19:10:30;;;;;;;;;20.25;19.25;;;;;;;;5051121;28;45579;-84
2021/12/03 19:13:05;;;;;;;;;17.00;17.00;;;;;;;;5032861;28;45594;-85
2021/12/03 19:15:31;;;;;;;;;16.25;14.50;;;;;;;;5050295;28;45451;-85
2021/12/03 19:18:01;;;;;;;;;21.50;20.00;;;;;;;;5032471;28;45816;-84
2021/12/03 19:20:28;;;;;;;;;19.50;18.25;;;;;;;;5031536;28;45711;-85
2021/12/03 19:22:53;;;;;;;;;17.25;17.25;;;;;;;;5051001;28;45587;-84
2021/12/03 19:25:19;;;;;;;;;24.25;22.00;;;;;;;;5031739;28;48162;-85
2021/12/03 19:27:44;;;;;;;;;21.25;18.25;;;;;;;;5031578;28;45853;-84
2021/12/03 19:30:10;;;;;;;;;21.33;21.33;;;;;;;;5038681;28;45438;-83
2021/12/03 19:32:35;;;;;;;;;35.00;30.25;;;;;;;;5054693;28;45271;-83
2021/12/03 19:35:00;;;;;;;;;20.25;18.75;;;;;;;;5060051;28;45882;-83
2021/12/03 19:37:28;;;;;;;;;21.00;18.50;;;;;;;;5033283;28;45471;-83
2021/12/03 19:39:54;;;;;;;;;16.75;16.25;;;;;;;;5050785;28;45506;-84
2021/12/03 19:42:23;;;;;;;;;17.00;16.50;;;;;;;;5035129;28;45621;-85
2021/12/03 19:45:09;;;;;;;;;15.50;15.25;;;;;;;;5038106;28;47635;-84
2021/12/03 19:47:47;;;;;;;;;14.50;14.50;;;;;;;;5032082;28;46018;-84
2021/12/03 19:53:01;;;;;;;;;11.75;11.75;;;;;;;;5050414;28;45383;-84
2021/12/03 19:55:26;;;;;;;;;27.00;25.75;;;;;;;;5030060;28;47850;-84
2021/12/03 19:57:52;;;;;;;;;42.00;38.67;;;;;;;;5031961;28;45577;-86
2021/12/03 20:00:18;;;;;;;;;32.50;30.25;;;;;;;;5032551;28;45408;-85
2021/12/03 20:02:43;;;;;;;;;30.25;28.50;;;;;;;;5032236;28;45540;-85
2021/12/03 20:05:08;;;;;;;;;27.75;26.00;;;;;;;;5031883;28;47137;-85
2021/12/03 20:07:34;;;;;;;;;30.67;27.00;;;;;;;;5032219;28;46076;-85
2021/12/03 20:10:02;;;;;;;;;24.00;23.00;;;;;;;;5032552;28;45417;-85
2021/12/03 20:12:30;;;;;;;;;11.50;9.25;;;;;;;;5031742;28;45515;-85
2021/12/03 20:14:56;;;;;;;;;10.00;8.50;;;;;;;;5032033;28;48494;-85
2021/12/03 20:17:29;;;;;;;;;10.50;10.50;;;;;;;;5032097;28;45423;-85
2021/12/03 20:20:00;;;;;;;;;5.75;5.75;;;;;;;;5031880;28;45500;-85
2021/12/03 20:22:37;;;;;;;;;6.50;5.00;;;;;;;;5032311;28;45672;-85
2021/12/03 20:25:30;;;;;;;;;5.00;3.50;;;;;;;;5050372;28;45519;-85
2021/12/03 20:28:07;;;;;;;;;6.75;5.75;;;;;;;;5031668;28;46246;-84
2021/12/03 20:33:05;;;;;;;;;3.00;3.00;;;;;;;;5050408;28;45742;-85
2021/12/03 20:37:59;;;;;;;;;3.00;3.00;;;;;;;;5050782;28;45594;-85
2021/12/03 20:40:26;;;;;;;;;4.67;4.33;;;;;;;;5050209;28;45772;-85
2021/12/03 20:45:47;;;;;;;;;6.00;6.00;;;;;;;;5038880;28;46135;-84
2021/12/03 20:49:05;;;;;;;;;3.00;3.00;;;;;;;;5029543;28;45943;-86
2021/12/03 20:53:33;;;;;;;;;4.67;4.67;;;;;;;;5029480;28;45409;-84
2021/12/03 20:59:29;;;;;;;;;6.25;5.00;;;;;;;;5029390;28;45838;-85
2021/12/03 21:09:46;;;;;;;;;5.50;4.00;;;;;;;;5029168;28;46029;-84
2021/12/03 21:12:21;;;;;;;;;6.00;6.00;;;;;;;;5029441;28;45592;-84
2021/12/03 21:17:46;;;;;;;;;6.00;5.75;;;;;;;;5028951;28;45616;-85
2021/12/03 21:22:46;;;;;;;;;7.00;6.75;;;;;;;;5029139;28;45698;-84
2021/12/03 21:25:14;;;;;;;;;7.25;7.00;;;;;;;;5028972;28;45774;-84
2021/12/03 21:27:42;;;;;;;;;6.25;6.25;;;;;;;;5030506;28;46925;-85
2021/12/03 21:30:18;;;;;;;;;14.50;8.75;;;;;;;;5031262;28;45499;-84
2021/12/03 21:32:56;;;;;;;;;8.75;8.00;;;;;;;;5031222;28;45557;-84
2021/12/03 21:43:15;;;;;;;;;8.00;8.00;;;;;;;;5052763;28;45451;-86
2021/12/03 21:45:40;;;;;;;;;9.00;9.00;;;;;;;;5033787;28;45420;-84
2021/12/03 21:48:06;;;;;;;;;8.75;8.75;;;;;;;;5034064;28;48045;-84
2021/12/03 21:50:32;;;;;;;;;14.50;13.50;;;;;;;;5033414;28;45462;-84
2021/12/03 21:52:57;;;;;;;;;16.00;14.00;;;;;;;;5034074;28;45470;-84
2021/12/03 21:55:24;;;;;;;;;13.00;13.00;;;;;;;;5033499;28;45630;-86
2021/12/03 21:57:49;;;;;;;;;15.00;12.75;;;;;;;;5051656;28;45671;-85
2021/12/03 22:00:15;;;;;;;;;12.50;11.75;;;;;;;;5041926;28;45602;-85
2021/12/03 22:02:40;;;;;;;;;14.25;13.00;;;;;;;;5033369;28;45540;-85
2021/12/03 22:05:06;;;;;;;;;15.25;15.25;;;;;;;;5032904;28;45586;-85
2021/12/03 22:07:31;;;;;;;;;14.75;14.00;;;;;;;;5033610;28;47222;-85
2021/12/03 22:09:56;;;;;;;;;14.75;13.75;;;;;;;;5034217;28;45691;-86
2021/12/03 22:12:22;;;;;;;;;14.67;14.67;;;;;;;;5034770;28;45556;-86
2021/12/03 22:14:47;;;;;;;;;9.00;8.33;;;;;;;;5053037;28;45625;-84
2021/12/03 22:17:12;;;;;;;;;11.67;11.00;;;;;;;;5033413;28;48330;-86
2021/12/03 22:19:37;;;;;;;;;13.67;12.00;;;;;;;;5033224;28;45529;-86
2021/12/03 22:22:06;;;;;;;;;8.00;8.00;;;;;;;;5034030;28;45368;-85
2021/12/03 22:24:31;;;;;;;;;7.50;7.00;;;;;;;;5033543;28;46214;-84
2021/12/03 22:26:57;;;;;;;;;8.75;8.75;;;;;;;;5035242;28;48097;-85
2021/12/03 22:29:22;;;;;;;;;6.25;6.00;;;;;;;;5033548;28;45606;-85
2021/12/03 22:31:48;;;;;;;;;7.00;6.25;;;;;;;;5053578;28;45622;-86
2021/12/03 22:34:13;;;;;;;;;8.33;6.33;;;;;;;;5051291;28;45605;-84
2021/12/03 22:36:38;;;;;;;;;6.50;4.00;;;;;;;;5031411;28;48070;-87
2021/12/03 22:39:04;;;;;;;;;4.67;4.67;;;;;;;;5034080;28;45454;-86
2021/12/03 22:41:29;;;;;;;;;6.00;6.00;;;;;;;;5034088;28;45404;-86